Time;durP1;ratioP1;P1;durP2;ratioP2;P2;SDS_P1;SDS_P2;PMS_P1;PMS_P2;Temp;Humidity;BMP_temperature;BMP_pressure;BME280_temperature;BME280_humidity;BME280_pressure;Samples;Min_cycle;Max_cycle;Signal;HPM_P1;HPM_P2
2022/06/01 00:00:36;;;;;;;1.70;1.48;;;;;;;12.57;57.36;98344.69;4138001;28;20264;-53
2022/06/01 00:02:38;;;;;;;2.90;2.03;;;;;;;12.59;57.57;98343.34;4143459;28;20232;-54
2022/06/01 00:04:39;;;;;;;2.05;1.33;;;;;;;12.63;57.32;98343.63;4135573;28;20212;-54
2022/06/01 00:06:41;;;;;;;0.93;0.93;;;;;;;12.60;57.54;98342.22;4152040;28;20214;-53
2022/06/01 00:08:43;;;;;;;1.05;1.02;;;;;;;12.59;57.10;98348.81;4136908;28;20582;-53
2022/06/01 00:10:45;;;;;;;1.25;1.00;;;;;;;12.61;57.72;98341.13;4154006;28;20224;-53
2022/06/01 00:12:46;;;;;;;1.08;1.05;;;;;;;12.54;57.45;98339.72;4134201;28;20279;-53
2022/06/01 00:14:48;;;;;;;0.90;0.90;;;;;;;12.48;57.55;98341.63;4143126;28;20212;-52
2022/06/01 00:16:55;;;;;;;1.00;0.90;;;;;;;12.41;57.96;98335.53;4152648;28;20205;-54
2022/06/01 00:18:57;;;;;;;0.85;0.85;;;;;;;12.28;58.26;98347.00;4134153;28;20273;-53
2022/06/01 00:20:58;;;;;;;1.88;1.42;;;;;;;12.03;59.09;98341.31;4151549;28;20248;-53
2022/06/01 00:23:00;;;;;;;1.75;0.95;;;;;;;11.71;59.38;98346.00;4139514;28;20239;-53
2022/06/01 00:25:04;;;;;;;1.30;1.20;;;;;;;11.75;59.47;98341.66;4151474;28;21174;-54
2022/06/01 00:27:06;;;;;;;1.52;1.42;;;;;;;11.85;59.09;98338.97;4138738;28;20391;-54
2022/06/01 00:29:08;;;;;;;2.20;1.10;;;;;;;11.90;58.82;98340.97;4139102;28;20783;-54
2022/06/01 00:31:13;;;;;;;1.20;1.10;;;;;;;11.97;58.70;98328.66;4151986;28;20744;-53
2022/06/01 00:33:15;;;;;;;1.35;1.00;;;;;;;11.99;58.75;98331.16;4137881;28;20699;-54
2022/06/01 00:35:20;;;;;;;1.13;1.05;;;;;;;11.96;58.38;98337.19;4143058;28;20202;-54
2022/06/01 00:37:21;;;;;;;1.88;1.38;;;;;;;11.94;58.48;98342.91;4153758;28;20969;-53
2022/06/01 00:39:23;;;;;;;0.80;0.80;;;;;;;11.91;58.71;98337.94;4138928;28;20572;-53
2022/06/01 00:41:25;;;;;;;1.08;0.98;;;;;;;11.86;59.10;98342.56;4153146;28;20658;-53
2022/06/01 00:43:42;;;;;;;1.30;1.20;;;;;;;11.94;58.75;98340.16;4135980;28;20293;-53
2022/06/01 00:45:44;;;;;;;1.05;0.90;;;;;;;11.88;58.91;98335.75;4145557;28;20209;-53
2022/06/01 00:47:47;;;;;;;0.80;0.80;;;;;;;11.68;59.35;98330.09;4140304;28;20675;-53
2022/06/01 00:49:57;;;;;;;0.90;0.90;;;;;;;11.72;59.12;98342.16;4133688;28;20206;-53
2022/06/01 00:51:58;;;;;;;1.15;1.00;;;;;;;11.80;58.95;98344.44;4134335;28;20213;-53
2022/06/01 00:54:00;;;;;;;0.93;0.93;;;;;;;11.90;58.89;98344.50;4139293;28;20229;-54
2022/06/01 00:56:08;;;;;;;1.40;1.30;;;;;;;11.89;58.91;98345.59;4135397;28;20205;-54
2022/06/01 00:58:39;;;;;;;1.33;1.00;;;;;;;11.89;59.06;98345.59;4123915;28;20228;-54
2022/06/01 01:00:41;;;;;;;1.40;1.30;;;;;;;11.87;59.33;98345.06;4149453;28;22059;-53
2022/06/01 01:02:44;;;;;;;1.42;1.33;;;;;;;11.85;58.91;98352.69;4135187;28;20222;-54
2022/06/01 01:04:46;;;;;;;1.00;1.00;;;;;;;11.82;59.02;98350.50;4153364;28;20781;-54
2022/06/01 01:06:48;;;;;;;0.98;0.90;;;;;;;11.82;59.12;98347.75;4140422;28;20671;-54
2022/06/01 01:08:51;;;;;;;1.05;1.00;;;;;;;11.87;59.17;98344.22;4151728;28;20201;-54
2022/06/01 01:10:53;;;;;;;0.80;0.80;;;;;;;11.87;59.40;98338.72;4139643;28;20640;-54
2022/06/01 01:13:04;;;;;;;0.88;0.88;;;;;;;11.86;59.16;98337.94;4156073;28;20229;-54
2022/06/01 01:15:07;;;;;;;1.20;1.10;;;;;;;11.90;59.11;98350.00;4153317;28;20295;-54
2022/06/01 01:17:08;;;;;;;1.20;1.10;;;;;;;11.87;59.41;98339.56;4139545;28;20233;-54
2022/06/01 01:19:43;;;;;;;0.68;0.68;;;;;;;11.84;59.36;98340.06;4137148;28;20568;-54
2022/06/01 01:21:59;;;;;;;0.95;0.95;;;;;;;11.83;59.46;98343.91;4127285;28;20232;-54
2022/06/01 01:24:38;;;;;;;1.27;1.10;;;;;;;11.86;59.21;98343.41;4155635;28;20225;-54
2022/06/01 01:26:49;;;;;;;0.65;0.65;;;;;;;11.88;59.07;98338.47;4154327;28;20243;-54
2022/06/01 01:28:52;;;;;;;1.10;1.10;;;;;;;11.88;59.29;98335.75;4136976;28;20201;-54
2022/06/01 01:31:16;;;;;;;1.00;1.00;;;;;;;11.90;59.38;98344.50;4137888;28;20280;-54
2022/06/01 01:33:28;;;;;;;1.25;1.25;;;;;;;11.93;59.81;98348.66;4137650;28;20699;-54
2022/06/01 01:35:30;;;;;;;1.05;1.05;;;;;;;11.97;59.81;98350.59;4156510;28;20197;-54
2022/06/01 01:37:32;;;;;;;1.65;1.55;;;;;;;11.92;59.63;98352.50;4153179;28;20205;-54
2022/06/01 01:39:35;;;;;;;1.63;1.05;;;;;;;11.88;59.69;98346.72;4125043;28;20746;-54
2022/06/01 01:41:40;;;;;;;1.10;1.00;;;;;;;11.88;59.59;98341.22;4153321;28;20217;-54
2022/06/01 01:44:05;;;;;;;1.15;1.05;;;;;;;11.87;59.83;98341.47;4155068;28;20722;-53
2022/06/01 01:46:07;;;;;;;0.93;0.93;;;;;;;11.81;60.22;98335.13;4152962;28;20202;-54
2022/06/01 01:48:09;;;;;;;1.23;0.98;;;;;;;11.80;59.90;98333.50;4141733;28;20213;-54
2022/06/01 01:50:11;;;;;;;1.00;1.00;;;;;;;11.80;59.71;98332.66;4118737;28;20601;-54
2022/06/01 01:52:15;;;;;;;0.77;0.77;;;;;;;11.85;59.55;98336.25;4152832;28;20230;-54
2022/06/01 01:54:36;;;;;;;1.13;1.13;;;;;;;11.85;59.48;98336.25;4153281;28;20243;-54
2022/06/01 01:57:22;;;;;;;0.90;0.90;;;;;;;11.86;59.97;98340.66;4120195;28;20207;-53
2022/06/01 01:59:40;;;;;;;0.93;0.93;;;;;;;11.83;60.06;98349.41;4136382;28;20239;-54
2022/06/01 02:01:47;;;;;;;0.95;0.95;;;;;;;11.80;59.89;98344.44;4154924;28;20254;-53
2022/06/01 02:03:54;;;;;;;0.88;0.88;;;;;;;11.71;60.49;98351.47;4137643;28;20271;-54
2022/06/01 02:06:04;;;;;;;1.08;1.00;;;;;;;11.67;60.37;98350.38;4139731;28;20286;-54
2022/06/01 02:08:16;;;;;;;0.95;0.95;;;;;;;11.63;59.86;98343.75;4135222;28;20247;-54
2022/06/01 02:12:41;;;;;;;1.55;1.45;;;;;;;11.62;59.83;98344.84;4154973;28;20225;-54
2022/06/01 02:14:51;;;;;;;0.82;0.82;;;;;;;11.61;60.34;98351.41;4140957;28;20243;-54
2022/06/01 02:17:23;;;;;;;0.95;0.90;;;;;;;11.60;60.49;98344.28;4134832;28;20236;-54
2022/06/01 02:19:38;;;;;;;1.20;1.10;;;;;;;11.64;60.04;98350.06;4128117;28;20243;-54
2022/06/01 02:21:40;;;;;;;1.13;1.08;;;;;;;11.67;60.49;98353.13;4135562;28;20265;-53
2022/06/01 02:23:43;;;;;;;1.30;1.20;;;;;;;11.70;60.46;98358.06;4154302;28;20209;-54
2022/06/01 02:25:48;;;;;;;1.27;1.15;;;;;;;11.75;59.96;98362.75;4136448;28;20834;-54
2022/06/01 02:27:51;;;;;;;0.95;0.88;;;;;;;11.77;60.16;98377.84;4138578;28;20394;-54
2022/06/01 02:30:09;;;;;;;1.02;0.93;;;;;;;11.74;60.84;98372.91;4122607;28;20199;-54
2022/06/01 02:32:12;;;;;;;1.33;1.10;;;;;;;11.65;60.85;98368.97;4137152;28;21201;-54
2022/06/01 02:34:14;;;;;;;0.88;0.88;;;;;;;11.62;61.01;98374.16;4151864;28;20201;-53
2022/06/01 02:36:17;;;;;;;1.38;1.27;;;;;;;11.61;60.47;98367.00;4153306;28;20212;-54
2022/06/01 02:38:29;;;;;;;1.25;1.15;;;;;;;11.53;60.55;98364.72;4152923;28;20212;-54
2022/06/01 02:40:31;;;;;;;2.83;1.00;;;;;;;11.24;61.00;98352.38;4136869;28;20253;-54
2022/06/01 02:42:33;;;;;;;1.60;1.50;;;;;;;10.83;61.84;98342.88;4134008;28;20364;-55
2022/06/01 02:44:35;;;;;;;1.50;1.40;;;;;;;10.72;62.52;98344.94;4138379;28;20209;-56
2022/06/01 02:46:36;;;;;;;1.30;1.20;;;;;;;10.84;62.20;98352.75;4140925;28;20235;-56
2022/06/01 02:48:43;;;;;;;0.80;0.80;;;;;;;10.90;62.21;98364.59;4133977;28;20688;-55
2022/06/01 02:50:45;;;;;;;0.82;0.82;;;;;;;11.03;61.84;98369.69;4144587;28;20197;-55
2022/06/01 02:52:50;;;;;;;1.50;1.00;;;;;;;11.00;62.22;98365.56;4155565;28;20725;-55
2022/06/01 02:54:52;;;;;;;1.30;1.20;;;;;;;10.86;62.58;98357.97;4142264;28;20224;-56
2022/06/01 02:56:53;;;;;;;1.08;1.02;;;;;;;10.79;62.63;98358.16;4151888;28;20201;-56
2022/06/01 02:58:56;;;;;;;1.30;1.20;;;;;;;10.78;62.99;98361.97;4137642;28;20719;-56
2022/06/01 03:00:58;;;;;;;0.82;0.82;;;;;;;10.80;62.76;98359.00;4134102;28;20205;-53
2022/06/01 03:03:02;;;;;;;1.67;1.58;;;;;;;10.67;63.15;98358.56;4150538;28;20776;-55
2022/06/01 03:05:04;;;;;;;1.40;1.30;;;;;;;10.69;63.13;98357.19;4139495;28;20247;-55
2022/06/01 03:07:07;;;;;;;1.42;1.33;;;;;;;10.81;62.68;98359.84;4118791;28;20223;-55
2022/06/01 03:09:11;;;;;;;1.50;1.35;;;;;;;10.83;62.57;98353.84;4130459;28;20241;-56
2022/06/01 03:11:13;;;;;;;1.52;1.42;;;;;;;10.88;62.61;98356.63;4136866;28;20584;-55
2022/06/01 03:13:15;;;;;;;1.63;1.30;;;;;;;10.91;62.37;98350.63;4139738;28;20221;-55
2022/06/01 03:15:20;;;;;;;1.17;1.13;;;;;;;10.88;62.73;98349.50;4136707;28;20206;-54
2022/06/01 03:17:21;;;;;;;1.50;1.40;;;;;;;10.78;63.19;98351.03;4134352;28;20218;-54
2022/06/01 03:19:24;;;;;;;1.15;1.15;;;;;;;10.88;62.57;98349.50;4135217;28;20762;-55
2022/06/01 03:21:26;;;;;;;1.27;1.17;;;;;;;10.92;62.41;98351.47;4151718;28;20216;-55
2022/06/01 03:23:27;;;;;;;1.48;1.30;;;;;;;10.97;62.04;98346.88;4151681;28;20323;-53
2022/06/01 03:25:29;;;;;;;1.40;1.30;;;;;;;10.97;62.33;98349.63;4120212;28;20210;-55
2022/06/01 03:27:31;;;;;;;1.35;1.25;;;;;;;10.93;62.30;98362.19;4151814;28;20197;-54
2022/06/01 03:29:33;;;;;;;1.58;1.48;;;;;;;10.90;62.00;98354.47;4137587;28;20668;-54
2022/06/01 03:31:35;;;;;;;1.60;1.23;;;;;;;10.92;62.08;98356.94;4131011;28;20221;-55
2022/06/01 03:33:37;;;;;;;2.25;1.10;;;;;;;10.88;62.46;98356.63;4152995;28;20577;-55
2022/06/01 03:35:40;;;;;;;0.98;0.93;;;;;;;10.88;62.50;98360.47;4136274;28;20206;-54
2022/06/01 03:37:41;;;;;;;1.65;1.55;;;;;;;10.82;62.55;98354.91;4141530;28;20220;-54
2022/06/01 03:39:43;;;;;;;1.08;1.08;;;;;;;10.82;62.86;98361.47;4159718;28;20633;-54
2022/06/01 03:41:45;;;;;;;1.17;1.10;;;;;;;10.81;62.69;98359.84;4145146;28;20299;-55
2022/06/01 03:46:07;;;;;;;1.25;1.17;;;;;;;10.38;64.25;98346.13;4153027;28;20727;-55
2022/06/01 03:48:08;;;;;;;1.60;1.50;;;;;;;10.30;64.66;98354.78;4153218;28;20250;-53
2022/06/01 03:50:12;;;;;;;1.73;1.63;;;;;;;10.35;64.32;98350.19;4153964;28;20547;-53
2022/06/01 03:52:14;;;;;;;1.30;1.27;;;;;;;10.33;64.66;98348.78;4137053;28;20224;-54
2022/06/01 03:54:16;;;;;;;1.98;1.73;;;;;;;10.37;64.27;98344.47;4138323;28;20667;-54
2022/06/01 03:56:18;;;;;;;2.35;1.75;;;;;;;10.19;65.25;98350.22;4135149;28;20295;-55
2022/06/01 03:58:22;;;;;;;1.48;1.35;;;;;;;10.29;64.37;98355.84;4136824;28;20726;-54
2022/06/01 04:00:25;;;;;;;1.10;1.10;;;;;;;10.37;64.02;98356.25;4132713;28;20237;-54
2022/06/01 04:02:27;;;;;;;1.38;1.27;;;;;;;10.49;63.95;98353.41;4141029;28;20241;-53
2022/06/01 04:04:29;;;;;;;1.40;1.30;;;;;;;10.54;63.97;98348.00;4135738;28;20232;-54
2022/06/01 04:06:31;;;;;;;1.52;1.42;;;;;;;10.57;63.93;98352.94;4152952;28;20258;-55
2022/06/01 04:08:33;;;;;;;1.23;1.15;;;;;;;10.64;63.67;98359.91;4134234;28;20774;-55
2022/06/01 04:10:36;;;;;;;1.52;1.42;;;;;;;10.66;63.40;98352.25;4123635;28;20210;-55
2022/06/01 04:12:38;;;;;;;1.13;1.02;;;;;;;10.69;63.40;98359.13;4139555;28;20226;-54
2022/06/01 04:14:40;;;;;;;1.08;1.08;;;;;;;10.74;63.28;98364.69;4139171;28;21291;-55
2022/06/01 04:16:41;;;;;;;1.52;1.42;;;;;;;10.79;63.00;98363.63;4137000;28;20271;-54
2022/06/01 04:18:43;;;;;;;1.23;1.20;;;;;;;10.82;63.04;98365.88;4139654;28;20263;-55
2022/06/01 04:20:46;;;;;;;1.80;1.70;;;;;;;10.84;63.35;98371.09;4141567;28;20473;-54
2022/06/01 04:22:48;;;;;;;1.40;1.30;;;;;;;10.85;62.90;98373.56;4152728;28;20228;-55
2022/06/01 04:24:49;;;;;;;1.35;1.25;;;;;;;10.92;63.49;98374.19;4121510;28;20202;-55
2022/06/01 04:26:51;;;;;;;1.30;1.20;;;;;;;10.87;63.76;98370.56;4155636;28;20733;-54
2022/06/01 04:28:53;;;;;;;1.52;1.42;;;;;;;10.88;63.55;98365.94;4156436;28;20209;-53
2022/06/01 04:30:55;;;;;;;1.35;1.25;;;;;;;10.91;63.26;98369.81;4134842;28;20210;-54
2022/06/01 04:32:57;;;;;;;1.15;1.08;;;;;;;10.94;63.22;98377.53;4144963;28;20794;-54
2022/06/01 04:35:00;;;;;;;1.23;1.20;;;;;;;10.92;63.24;98376.13;4130922;28;20210;-54
2022/06/01 04:37:02;;;;;;;1.98;1.88;;;;;;;10.93;63.36;98373.13;4136077;28;20260;-55
2022/06/01 04:39:04;;;;;;;1.40;1.30;;;;;;;10.96;63.22;98375.34;4128861;28;20382;-55
2022/06/01 04:41:06;;;;;;;1.40;1.30;;;;;;;10.97;63.29;98377.00;4139297;28;20237;-54
2022/06/01 04:43:08;;;;;;;1.38;1.33;;;;;;;10.96;63.55;98378.09;4138153;28;20231;-53
2022/06/01 04:45:12;;;;;;;0.98;0.98;;;;;;;11.01;63.15;98382.78;4138983;28;20229;-54
2022/06/01 04:47:14;;;;;;;1.27;1.17;;;;;;;11.03;63.25;98386.94;4136760;28;20738;-53
2022/06/01 04:49:17;;;;;;;1.33;1.23;;;;;;;11.07;63.07;98377.13;4154726;28;20675;-53
2022/06/01 04:51:19;;;;;;;1.45;1.30;;;;;;;11.14;63.11;98383.22;4154118;28;20197;-54
2022/06/01 04:53:21;;;;;;;1.48;1.38;;;;;;;11.18;63.10;98384.34;4156144;28;20326;-53
2022/06/01 04:55:23;;;;;;;1.63;1.52;;;;;;;11.23;62.82;98381.69;4144732;28;20209;-54
2022/06/01 04:57:25;;;;;;;1.30;1.20;;;;;;;11.30;62.77;98382.31;4152527;28;20209;-54
2022/06/01 04:59:26;;;;;;;1.50;1.40;;;;;;;11.34;63.11;98388.94;4153755;28;20721;-53
2022/06/01 05:01:28;;;;;;;1.95;1.00;;;;;;;11.40;62.52;98387.06;4140916;28;20716;-53
2022/06/01 05:03:30;;;;;;;1.40;1.30;;;;;;;11.44;62.29;98385.47;4136422;28;20320;-53
2022/06/01 05:05:36;;;;;;;1.38;1.27;;;;;;;11.47;62.85;98377.56;4129612;28;20648;-53
2022/06/01 05:07:42;;;;;;;1.52;1.38;;;;;;;11.53;62.41;98390.22;4137102;28;20719;-54
2022/06/01 05:09:44;;;;;;;2.20;1.17;;;;;;;11.60;62.48;98398.25;4140605;28;20714;-53
2022/06/01 05:11:46;;;;;;;1.27;1.23;;;;;;;11.65;62.50;98393.63;4152936;28;20208;-53
2022/06/01 05:13:48;;;;;;;0.98;0.98;;;;;;;11.68;62.27;98379.44;4144729;28;20201;-52
2022/06/01 05:15:54;;;;;;;1.05;1.02;;;;;;;11.55;63.22;98382.56;4141322;28;20256;-54
2022/06/01 05:17:56;;;;;;;1.50;1.40;;;;;;;11.62;63.27;98385.09;4143470;28;20220;-53
2022/06/01 05:19:59;;;;;;;1.42;1.33;;;;;;;11.58;63.64;98384.00;4144233;28;20599;-53
2022/06/01 05:22:01;;;;;;;1.02;1.02;;;;;;;11.70;63.08;98377.25;4134754;28;20237;-53
2022/06/01 05:24:03;;;;;;;1.42;1.27;;;;;;;11.74;63.34;98372.06;4143154;28;20676;-53
2022/06/01 05:26:05;;;;;;;1.25;1.15;;;;;;;11.77;63.15;98372.38;4155080;28;20668;-54
2022/06/01 05:28:07;;;;;;;1.15;1.13;;;;;;;11.87;62.72;98372.47;4134998;28;20758;-53
2022/06/01 05:30:09;;;;;;;1.27;1.00;;;;;;;12.01;62.74;98379.16;4144562;28;20209;-55
2022/06/01 05:32:11;;;;;;;1.77;1.65;;;;;;;11.99;63.08;98370.38;4134621;28;20234;-55
2022/06/01 05:34:13;;;;;;;2.15;1.60;;;;;;;12.18;63.53;98373.53;4136114;28;20209;-54
2022/06/01 05:36:17;;;;;;;2.67;2.08;;;;;;;12.43;63.64;98377.25;4154234;28;20267;-55
2022/06/01 05:38:19;;;;;;;5.78;2.13;;;;;;;12.62;62.76;98375.72;4155328;28;20637;-54
2022/06/01 05:40:21;;;;;;;1.30;1.20;;;;;;;12.60;61.60;98383.41;4144450;28;20232;-53
2022/06/01 05:42:23;;;;;;;1.75;1.52;;;;;;;12.76;61.68;98382.38;4137364;28;20678;-54
2022/06/01 05:44:25;;;;;;;1.27;1.17;;;;;;;13.02;61.61;98381.44;4139134;28;20325;-53
2022/06/01 05:46:27;;;;;;;1.98;1.88;;;;;;;13.27;60.39;98384.28;4153175;28;20240;-54
2022/06/01 05:48:28;;;;;;;1.77;1.67;;;;;;;13.44;60.34;98390.34;4137662;28;20201;-54
2022/06/01 05:50:32;;;;;;;2.38;1.25;;;;;;;13.61;59.80;98396.44;4136307;28;20201;-53
2022/06/01 05:52:38;;;;;;;1.42;1.33;;;;;;;13.58;59.11;98390.66;4139317;28;20226;-53
2022/06/01 05:54:40;;;;;;;1.95;1.00;;;;;;;13.76;59.38;98382.72;4123390;28;20589;-53
2022/06/01 05:56:42;;;;;;;1.48;1.38;;;;;;;13.91;59.01;98385.47;4144391;28;20296;-54
2022/06/01 05:58:45;;;;;;;1.10;1.10;;;;;;;14.01;58.28;98399.25;4140281;28;20206;-54
2022/06/01 06:00:48;;;;;;;1.35;1.25;;;;;;;13.97;58.05;98392.63;4137589;28;20221;-54
2022/06/01 06:02:50;;;;;;;1.42;1.23;;;;;;;13.92;58.20;98387.16;4154855;28;20237;-54
2022/06/01 06:04:52;;;;;;;1.02;1.00;;;;;;;14.10;58.49;98394.81;4141239;28;20205;-53
2022/06/01 06:06:54;;;;;;;5.97;1.20;;;;;;;14.27;58.33;98395.41;4136281;28;20202;-53
2022/06/01 06:09:02;;;;;;;1.08;1.08;;;;;;;14.44;57.70;98395.94;4138292;28;20205;-53
2022/06/01 06:11:06;;;;;;;1.05;0.95;;;;;;;14.61;57.67;98396.47;4145736;28;20205;-53
2022/06/01 06:13:07;;;;;;;0.80;0.80;;;;;;;14.56;56.60;98398.41;4135906;28;20673;-53
2022/06/01 06:15:10;;;;;;;1.25;1.20;;;;;;;14.74;57.09;98400.56;4142842;28;20224;-53
2022/06/01 06:17:11;;;;;;;1.13;1.10;;;;;;;14.86;57.47;98399.16;4134887;28;20668;-54
2022/06/01 06:19:15;;;;;;;0.98;0.98;;;;;;;14.97;57.02;98400.75;4121925;28;20272;-54
2022/06/01 06:21:18;;;;;;;1.90;1.25;;;;;;;15.11;56.82;98401.81;4140876;28;20234;-53
2022/06/01 06:23:20;;;;;;;1.45;1.35;;;;;;;15.07;56.72;98389.72;4152167;28;20316;-53
2022/06/01 06:25:22;;;;;;;1.10;1.00;;;;;;;15.01;58.15;98401.84;4136159;28;20220;-53
2022/06/01 06:27:26;;;;;;;1.25;1.13;;;;;;;14.99;57.51;98398.56;4140229;28;20622;-53
2022/06/01 06:29:28;;;;;;;2.10;1.83;;;;;;;15.31;57.04;98412.75;4140964;28;20267;-53
2022/06/01 06:31:30;;;;;;;1.30;1.20;;;;;;;15.43;56.61;98420.75;4155631;28;20201;-53
2022/06/01 06:33:32;;;;;;;1.77;1.55;;;;;;;15.47;55.93;98411.59;4145081;28;20260;-53
2022/06/01 06:35:34;;;;;;;1.20;1.10;;;;;;;15.53;55.66;98421.50;4136094;28;20276;-54
2022/06/01 06:37:36;;;;;;;0.80;0.80;;;;;;;15.44;55.18;98423.19;4136170;28;20206;-53
2022/06/01 06:39:38;;;;;;;1.23;1.13;;;;;;;15.61;55.16;98423.66;4152315;28;20208;-54
2022/06/01 06:41:40;;;;;;;1.77;0.85;;;;;;;15.73;55.29;98415.88;4139240;28;20576;-53
2022/06/01 06:43:42;;;;;;;2.00;1.45;;;;;;;15.91;55.56;98428.16;4138802;28;20221;-54
2022/06/01 06:45:48;;;;;;;1.00;1.00;;;;;;;15.98;54.58;98418.47;4156457;28;20364;-54
2022/06/01 06:47:50;;;;;;;2.35;1.73;;;;;;;15.76;54.23;98431.84;4139297;28;20202;-52
2022/06/01 06:49:52;;;;;;;0.90;0.90;;;;;;;15.96;54.43;98426.19;4155185;28;20256;-53
2022/06/01 06:51:54;;;;;;;1.48;1.00;;;;;;;16.24;54.29;98422.66;4130179;28;20722;-54
2022/06/01 06:53:55;;;;;;;0.90;0.85;;;;;;;16.47;55.40;98426.63;4138089;28;20657;-54
2022/06/01 06:55:57;;;;;;;1.58;0.90;;;;;;;16.64;53.85;98425.09;4155249;28;20213;-53
2022/06/01 06:57:59;;;;;;;2.63;0.73;;;;;;;16.78;53.22;98422.47;4134894;28;20206;-53
2022/06/01 07:00:03;;;;;;;1.50;1.27;;;;;;;16.96;53.26;98419.78;4143401;28;20341;-53
2022/06/01 07:02:05;;;;;;;1.10;0.70;;;;;;;17.18;51.82;98418.13;4144220;28;20233;-53
2022/06/01 07:04:07;;;;;;;0.95;0.93;;;;;;;17.25;50.22;98417.81;4137068;28;20221;-53
2022/06/01 07:06:09;;;;;;;0.70;0.70;;;;;;;16.82;51.65;98416.06;4158747;28;20722;-53
2022/06/01 07:08:10;;;;;;;1.08;0.80;;;;;;;17.07;51.18;98415.78;4131976;28;20390;-53
2022/06/01 07:10:12;;;;;;;1.40;1.30;;;;;;;17.34;52.06;98421.53;4157245;28;20209;-53
2022/06/01 07:12:14;;;;;;;0.35;0.35;;;;;;;17.50;50.51;98417.50;4148190;28;20678;-53
2022/06/01 07:14:16;;;;;;;0.85;0.70;;;;;;;17.68;49.23;98417.53;4125154;28;20219;-53
2022/06/01 07:16:24;;;;;;;0.70;0.60;;;;;;;17.87;48.29;98414.75;4141497;28;20238;-54
2022/06/01 07:18:26;;;;;;;0.30;0.30;;;;;;;18.05;45.95;98419.47;4142194;28;20263;-53
2022/06/01 07:20:28;;;;;;;1.05;0.85;;;;;;;17.99;46.66;98418.72;4158131;28;20295;-53
2022/06/01 07:22:30;;;;;;;0.55;0.50;;;;;;;18.27;46.35;98414.13;4149314;28;20870;-53
2022/06/01 07:24:31;;;;;;;0.45;0.45;;;;;;;18.39;45.59;98415.31;4149509;28;20699;-53
2022/06/01 07:26:36;;;;;;;0.95;0.95;;;;;;;18.45;46.91;98416.09;4141619;28;20263;-52
2022/06/01 07:28:38;;;;;;;0.32;0.32;;;;;;;18.60;46.73;98424.97;4140915;28;20205;-53
2022/06/01 07:30:40;;;;;;;0.50;0.50;;;;;;;18.73;46.97;98413.06;4148199;28;20237;-52
2022/06/01 07:32:48;;;;;;;0.47;0.47;;;;;;;18.57;45.98;98413.66;4140826;28;20229;-53
2022/06/01 07:34:50;;;;;;;0.90;0.60;;;;;;;18.48;46.34;98412.69;4160926;28;20208;-53
2022/06/01 07:36:51;;;;;;;0.70;0.70;;;;;;;18.53;47.64;98412.63;4128355;28;20670;-52
2022/06/01 07:43:39;;;;;;;0.88;0.50;;;;;;;19.17;47.45;98412.53;4158391;28;20294;-53
2022/06/01 07:45:45;;;;;;;0.60;0.60;;;;;;;19.38;44.62;98414.59;4147579;28;20667;-53
2022/06/01 07:47:47;;;;;;;1.15;0.75;;;;;;;19.29;45.71;98413.69;4137786;28;20595;-52
2022/06/01 07:50:09;;;;;;;0.52;0.52;;;;;;;19.46;45.39;98421.38;4139934;28;20234;-53
2022/06/01 07:52:31;;;;;;;0.60;0.60;;;;;;;19.62;46.21;98420.75;4156869;28;20252;-53
2022/06/01 07:54:35;;;;;;;0.40;0.40;;;;;;;19.69;45.56;98420.31;4153911;28;20212;-52
2022/06/01 07:56:37;;;;;;;0.95;0.95;;;;;;;20.15;44.53;98419.00;4142939;28;20237;-52
2022/06/01 07:58:39;;;;;;;0.68;0.40;;;;;;;19.99;44.64;98414.09;4141428;28;20253;-52
2022/06/01 08:00:40;;;;;;;0.50;0.50;;;;;;;20.02;44.65;98413.44;4137755;28;20209;-52
2022/06/01 08:02:42;;;;;;;0.50;0.40;;;;;;;19.88;43.64;98412.66;4137260;28;20688;-52
2022/06/01 08:04:44;;;;;;;0.55;0.55;;;;;;;19.85;43.70;98408.53;4139427;28;20260;-52
2022/06/01 08:06:46;;;;;;;0.32;0.32;;;;;;;20.01;43.54;98411.81;4156581;28;20208;-52
2022/06/01 08:08:57;;;;;;;0.60;0.43;;;;;;;19.67;44.13;98422.59;4142559;28;20300;-52
2022/06/01 08:10:59;;;;;;;0.50;0.50;;;;;;;19.80;42.68;98421.75;4154451;28;20201;-52
2022/06/01 08:13:06;;;;;;;0.40;0.40;;;;;;;19.90;43.56;98432.63;4145848;28;20256;-53
2022/06/01 08:15:09;;;;;;;0.45;0.45;;;;;;;20.08;43.07;98412.22;4137496;28;20232;-53
2022/06/01 08:17:17;;;;;;;0.40;0.40;;;;;;;20.19;43.11;98420.00;4153043;28;20671;-53
2022/06/01 08:19:19;;;;;;;0.40;0.40;;;;;;;20.43;43.06;98431.66;4134573;28;20210;-51
2022/06/01 08:21:21;;;;;;;0.40;0.40;;;;;;;20.63;43.54;98424.75;4143619;28;20572;-51
2022/06/01 08:23:25;;;;;;;0.90;0.50;;;;;;;20.50;42.14;98426.47;4154870;28;20240;-52
2022/06/01 08:25:28;;;;;;;0.60;0.60;;;;;;;20.78;42.95;98432.72;4154897;28;20204;-51
2022/06/01 08:27:29;;;;;;;0.50;0.50;;;;;;;20.85;42.24;98433.88;4141306;28;20209;-54
2022/06/01 08:29:31;;;;;;;0.52;0.43;;;;;;;20.73;40.71;98430.91;4136548;28;20204;-52
2022/06/01 08:31:34;;;;;;;0.45;0.30;;;;;;;20.82;42.10;98428.13;4152188;28;20201;-52
2022/06/01 08:33:36;;;;;;;0.40;0.40;;;;;;;21.12;42.79;98427.38;4139266;28;20232;-51
2022/06/01 08:35:40;;;;;;;0.50;0.50;;;;;;;21.21;42.91;98426.28;4138076;28;20202;-53
2022/06/01 08:37:42;;;;;;;0.30;0.30;;;;;;;21.19;41.82;98428.53;4138428;28;20213;-51
2022/06/01 08:39:44;;;;;;;0.40;0.40;;;;;;;21.33;41.37;98422.88;4138194;28;20756;-52
2022/06/01 08:41:45;;;;;;;1.45;1.00;;;;;;;20.79;40.78;98423.22;4125429;28;20225;-53
2022/06/01 08:43:50;;;;;;;0.80;0.60;;;;;;;20.92;41.09;98434.28;4137238;28;20205;-52
2022/06/01 08:45:57;;;;;;;0.40;0.40;;;;;;;21.30;40.99;98429.09;4136861;28;20410;-52
2022/06/01 08:48:00;;;;;;;0.35;0.35;;;;;;;21.34;41.21;98438.44;4137030;28;20220;-52
2022/06/01 08:50:14;;;;;;;1.42;0.45;;;;;;;21.31;41.17;98436.31;4153040;28;20662;-53
2022/06/01 08:52:16;;;;;;;0.32;0.32;;;;;;;21.05;39.68;98438.94;4143990;28;20624;-52
2022/06/01 08:54:18;;;;;;;1.65;0.43;;;;;;;20.89;40.48;98434.09;4154465;28;20623;-52
2022/06/01 08:56:26;;;;;;;0.43;0.30;;;;;;;20.70;40.16;98425.94;4145551;28;20212;-52
2022/06/01 08:58:34;;;;;;;0.40;0.40;;;;;;;20.57;40.06;98439.94;4135917;28;20200;-52
2022/06/01 09:00:42;;;;;;;0.35;0.35;;;;;;;20.71;40.81;98437.91;4154435;28;20205;-52
2022/06/01 09:03:16;;;;;;;0.30;0.30;;;;;;;20.99;39.83;98439.41;4138644;28;20683;-52
2022/06/01 09:05:24;;;;;;;0.30;0.30;;;;;;;20.88;39.61;98446.38;4103031;28;20577;-52
2022/06/01 09:07:28;;;;;;;0.43;0.32;;;;;;;21.02;39.50;98441.53;4155083;28;20208;-53
2022/06/01 09:09:43;;;;;;;0.52;0.38;;;;;;;20.57;39.13;98440.75;4155061;28;20209;-52
2022/06/01 09:11:46;;;;;;;1.75;0.60;;;;;;;20.97;41.27;98441.72;4137534;28;20217;-52
2022/06/01 09:14:03;;;;;;;0.40;0.30;;;;;;;21.39;41.41;98430.75;4136531;28;20200;-51
2022/06/01 09:16:19;;;;;;;0.40;0.40;;;;;;;21.64;40.07;98440.34;4134851;28;20309;-53
2022/06/01 09:18:26;;;;;;;0.30;0.30;;;;;;;21.84;39.38;98446.16;4153833;28;20318;-52
2022/06/01 09:22:53;;;;;;;0.30;0.30;;;;;;;21.75;39.02;98452.84;4152842;28;20231;-53
2022/06/01 09:24:54;;;;;;;6.40;0.40;;;;;;;21.71;38.23;98449.09;4144015;28;20212;-52
2022/06/01 09:27:11;;;;;;;0.30;0.30;;;;;;;21.34;41.09;98444.00;4120428;28;20227;-51
2022/06/01 09:29:19;;;;;;;0.73;0.70;;;;;;;22.01;39.26;98448.16;4135901;28;20205;-53
2022/06/01 09:31:27;;;;;;;0.35;0.35;;;;;;;21.56;38.79;98450.31;4154139;28;20637;-51
2022/06/01 09:33:33;;;;;;;2.05;0.80;;;;;;;21.94;41.25;98454.22;4134418;28;20267;-53
2022/06/01 09:36:04;;;;;;;0.38;0.38;;;;;;;22.12;38.54;98457.84;4153072;28;20214;-51
2022/06/01 09:38:40;;;;;;;1.27;1.17;;;;;;;20.65;39.68;98455.84;4138583;28;20255;-51
2022/06/01 09:40:41;;;;;;;0.65;0.50;;;;;;;20.98;40.12;98454.47;4136681;28;20398;-52
2022/06/01 09:42:49;;;;;;;0.52;0.52;;;;;;;21.58;39.67;98441.63;4119733;28;20684;-52
2022/06/01 09:44:54;;;;;;;0.38;0.30;;;;;;;21.43;39.63;98453.22;4151730;28;20750;-51
2022/06/01 09:46:58;;;;;;;0.75;0.75;;;;;;;21.79;39.13;98454.69;4135603;28;20308;-51
2022/06/01 09:49:05;;;;;;;0.40;0.40;;;;;;;21.49;38.45;98451.91;4137318;28;20271;-52
2022/06/01 09:51:14;;;;;;;0.40;0.40;;;;;;;21.26;38.68;98456.75;4135765;28;20240;-52
2022/06/01 09:53:21;;;;;;;0.40;0.40;;;;;;;21.25;38.83;98455.09;4126131;28;20224;-51
2022/06/01 09:55:25;;;;;;;0.63;0.32;;;;;;;21.77;39.01;98462.53;4136247;28;20259;-52
2022/06/01 09:57:38;;;;;;;0.52;0.40;;;;;;;22.26;40.90;98441.78;4140337;28;20209;-51
2022/06/01 10:06:58;;;;;;;0.50;0.50;;;;;;;22.08;38.89;98446.53;4151854;28;20360;-51